createdAt,value
2019-05-05T00:01:17.636Z,59.10
2019-05-05T00:04:04.478Z,59.22
2019-05-05T00:06:35.962Z,59.38
2019-05-05T00:09:06.718Z,59.36
2019-05-05T00:11:44.354Z,59.89
2019-05-05T00:14:24.594Z,59.79
2019-05-05T00:17:05.335Z,60.28
2019-05-05T00:19:36.936Z,60.52
2019-05-05T00:22:08.326Z,61.25
2019-05-05T00:24:39.688Z,61.45
2019-05-05T00:27:11.001Z,61.51
2019-05-05T00:29:42.395Z,61.55
2019-05-05T00:32:15.338Z,61.41
2019-05-05T00:34:46.931Z,61.52
2019-05-05T00:37:18.370Z,61.52
2019-05-05T00:39:49.658Z,61.81
2019-05-05T00:42:21.063Z,62.03
2019-05-05T00:44:54.917Z,62.15
2019-05-05T00:47:36.380Z,62.96
2019-05-05T00:50:09.243Z,62.19
2019-05-05T00:52:40.726Z,62.47
2019-05-05T00:55:12.072Z,62.71
2019-05-05T00:57:45.347Z,62.86
2019-05-05T01:00:24.453Z,63.12
2019-05-05T01:02:57.295Z,63.28
2019-05-05T01:05:39.299Z,63.43
2019-05-05T01:08:14.297Z,63.37
2019-05-05T01:10:46.041Z,63.43
2019-05-05T01:13:16.872Z,63.50
2019-05-05T01:15:47.926Z,64.03
2019-05-05T01:18:19.403Z,63.65
2019-05-05T01:20:50.800Z,63.53
2019-05-05T01:23:24.282Z,63.74
2019-05-05T01:25:55.202Z,63.86
2019-05-05T01:28:26.533Z,63.93
2019-05-05T01:30:59.559Z,64.10
2019-05-05T01:33:34.369Z,64.44
2019-05-05T01:36:05.679Z,64.40
2019-05-05T01:38:47.765Z,64.37
2019-05-05T01:41:29.378Z,64.45
2019-05-05T01:44:00.775Z,64.41
2019-05-05T01:46:32.182Z,64.46
2019-05-05T01:49:05.386Z,64.41
2019-05-05T01:51:36.705Z,64.29
2019-05-05T01:54:08.113Z,64.37
2019-05-05T01:56:39.449Z,64.42
2019-05-05T01:59:10.830Z,64.53
2019-05-05T02:01:44.384Z,64.78
2019-05-05T02:04:15.494Z,64.85
2019-05-05T02:06:46.341Z,64.69
2019-05-05T02:09:17.430Z,65.33
2019-05-05T02:11:48.370Z,65.04
2019-05-05T02:14:19.457Z,65.52
2019-05-05T02:16:50.853Z,65.26
2019-05-05T02:19:22.226Z,65.63
2019-05-05T02:21:55.097Z,65.63
2019-05-05T02:24:26.474Z,65.63
2019-05-05T02:26:57.931Z,65.88
2019-05-05T02:29:35.358Z,65.99
2019-05-05T02:32:25.703Z,65.97
2019-05-05T02:34:58.987Z,65.90
2019-05-05T02:37:30.362Z,66.08
2019-05-05T02:40:06.219Z,66.05
2019-05-05T02:42:35.543Z,65.85
2019-05-05T02:45:08.665Z,65.78
2019-05-05T02:47:47.776Z,66.04
2019-05-05T02:50:19.220Z,65.89
2019-05-05T02:52:50.014Z,65.88
2019-05-05T02:55:21.114Z,66.35
2019-05-05T02:57:54.410Z,66.05
2019-05-05T03:00:27.192Z,66.30
2019-05-05T03:03:00.132Z,66.10
2019-05-05T03:05:31.541Z,65.53
2019-05-05T03:08:04.719Z,64.65
2019-05-05T03:10:35.948Z,64.22
2019-05-05T03:13:07.350Z,64.33
2019-05-05T03:15:50.625Z,64.76
2019-05-05T03:18:22.048Z,65.17
2019-05-05T03:21:02.337Z,65.49
2019-05-05T03:23:28.190Z,65.83
2019-05-05T03:25:59.573Z,65.82
2019-05-05T03:28:34.379Z,65.97
2019-05-05T03:31:05.804Z,65.36
2019-05-05T03:33:37.722Z,64.79
2019-05-05T03:36:09.069Z,64.31
2019-05-05T03:38:44.404Z,63.91
2019-05-05T03:41:26.681Z,63.57
2019-05-05T03:44:04.720Z,63.07
2019-05-05T03:46:36.342Z,62.98
2019-05-05T03:49:07.737Z,62.92
2019-05-05T03:51:39.182Z,62.68
2019-05-05T03:54:10.624Z,62.39
2019-05-05T03:56:44.112Z,62.17
2019-05-05T03:59:15.188Z,62.06
2019-05-05T04:01:54.577Z,61.92
2019-05-05T04:04:27.491Z,61.89
2019-05-05T04:07:00.032Z,61.44
2019-05-05T04:09:31.434Z,61.17
2019-05-05T04:12:04.273Z,60.95
2019-05-05T04:14:35.148Z,60.90
2019-05-05T04:17:07.634Z,60.65
2019-05-05T04:19:46.412Z,60.56
2019-05-05T04:22:17.825Z,60.30
2019-05-05T04:24:49.236Z,60.18
2019-05-05T04:27:20.633Z,59.93
2019-05-05T04:29:51.446Z,59.46
2019-05-05T04:32:24.737Z,59.16
2019-05-05T04:34:56.197Z,58.80
2019-05-05T04:37:27.004Z,58.80
2019-05-05T04:39:58.104Z,58.03
2019-05-05T04:42:29.542Z,57.57
2019-05-05T04:45:00.626Z,56.98
2019-05-05T04:47:43.612Z,56.71
2019-05-05T04:50:23.872Z,55.66
2019-05-05T04:52:57.013Z,55.22
2019-05-05T04:55:28.615Z,54.64
2019-05-05T04:58:01.712Z,54.13
2019-05-05T05:00:34.217Z,53.80
2019-05-05T05:03:24.144Z,53.45
2019-05-05T05:05:57.546Z,53.02
2019-05-05T05:08:31.007Z,52.44
2019-05-05T05:11:03.680Z,51.89
2019-05-05T05:13:35.243Z,51.49
2019-05-05T05:16:08.608Z,51.35
2019-05-05T05:18:40.292Z,50.38
2019-05-05T05:21:20.945Z,49.44
2019-05-05T05:23:53.760Z,49.48
2019-05-05T05:26:26.872Z,49.44
2019-05-05T05:28:58.244Z,48.89
2019-05-05T05:31:29.080Z,48.52
2019-05-05T05:34:00.297Z,48.39
2019-05-05T05:36:33.812Z,46.99
2019-05-05T05:39:13.894Z,47.38
2019-05-05T05:41:46.096Z,47.75
2019-05-05T05:44:28.239Z,46.30
2019-05-05T05:47:10.124Z,46.72
2019-05-05T05:49:48.422Z,46.68
2019-05-05T05:52:19.903Z,47.14
2019-05-05T05:54:53.553Z,46.85
2019-05-05T05:57:41.033Z,46.49
2019-05-05T06:00:14.652Z,47.03
2019-05-05T06:02:46.039Z,46.69
2019-05-05T06:05:17.313Z,46.79
2019-05-05T06:07:48.622Z,46.30
2019-05-05T06:10:26.629Z,46.70
2019-05-05T06:12:55.772Z,46.78
2019-05-05T06:15:27.177Z,46.70
2019-05-05T06:17:58.521Z,46.40
2019-05-05T06:20:29.973Z,45.72
2019-05-05T06:23:04.063Z,44.53
2019-05-05T06:25:38.069Z,44.35
2019-05-05T06:28:08.786Z,43.82
2019-05-05T06:30:40.222Z,43.58
2019-05-05T06:33:13.686Z,42.85
2019-05-05T06:35:45.158Z,42.67
2019-05-05T06:38:16.622Z,42.94
2019-05-05T06:40:54.954Z,43.04
2019-05-05T06:43:36.667Z,42.55
2019-05-05T06:46:14.516Z,42.72
2019-05-05T06:48:45.716Z,42.50
2019-05-05T06:51:17.046Z,43.09
2019-05-05T06:53:47.870Z,42.56
2019-05-05T06:56:18.892Z,42.66
2019-05-05T07:01:53.601Z,41.72
2019-05-05T07:04:29.572Z,41.98
2019-05-05T07:07:18.820Z,41.94
2019-05-05T07:09:49.443Z,41.22
2019-05-05T07:12:20.545Z,40.99
2019-05-05T07:14:53.806Z,39.93
2019-05-05T07:17:28.065Z,40.11
2019-05-05T07:20:06.435Z,40.51
2019-05-05T07:23:01.517Z,39.27
2019-05-05T07:25:39.874Z,39.82
2019-05-05T07:28:16.082Z,40.50
2019-05-05T07:31:14.311Z,39.77
2019-05-05T07:34:28.318Z,39.67
2019-05-05T07:37:01.319Z,39.33
2019-05-05T07:39:34.044Z,39.40
2019-05-05T07:42:04.746Z,39.98
2019-05-05T07:44:36.167Z,39.81
2019-05-05T07:47:07.943Z,39.37
2019-05-05T07:49:39.382Z,39.37
2019-05-05T07:52:10.725Z,39.75
2019-05-05T07:54:43.809Z,40.09
2019-05-05T07:57:15.089Z,39.91
2019-05-05T07:59:49.399Z,40.81
2019-05-05T08:02:23.766Z,40.21
2019-05-05T08:04:55.222Z,40.38
2019-05-05T08:07:27.447Z,40.93
2019-05-05T08:09:58.629Z,41.18
2019-05-05T08:12:29.891Z,40.37
2019-05-05T08:15:00.613Z,41.55
2019-05-05T08:17:39.215Z,41.90
2019-05-05T08:20:14.256Z,40.99
2019-05-05T08:22:45.346Z,40.90
2019-05-05T08:25:34.527Z,40.57
2019-05-05T08:28:07.922Z,40.76
2019-05-05T08:30:50.012Z,39.23
2019-05-05T08:33:24.142Z,39.92
2019-05-05T08:35:55.594Z,40.37
2019-05-05T08:38:26.984Z,39.53
2019-05-05T08:40:57.960Z,38.30
2019-05-05T08:43:29.118Z,38.54
2019-05-05T08:46:00.323Z,38.44
2019-05-05T08:48:31.544Z,38.54
2019-05-05T08:51:04.813Z,39.31
2019-05-05T08:53:45.059Z,39.73
2019-05-05T08:56:08.771Z,39.62
2019-05-05T08:58:40.059Z,39.44
2019-05-05T09:01:11.767Z,40.33
2019-05-05T09:03:44.256Z,39.53
2019-05-05T09:06:15.797Z,36.56
2019-05-05T09:08:47.033Z,35.57
2019-05-05T09:11:19.835Z,36.06
2019-05-05T09:13:53.566Z,35.63
2019-05-05T09:16:25.040Z,35.62
2019-05-05T09:19:00.120Z,35.72
2019-05-05T09:21:31.227Z,35.95
2019-05-05T09:24:16.769Z,35.52
2019-05-05T09:26:51.247Z,35.81
2019-05-05T09:29:40.233Z,35.64
2019-05-05T09:32:24.325Z,36.30
2019-05-05T09:34:57.433Z,36.55
2019-05-05T09:37:35.143Z,36.64
2019-05-05T09:40:13.968Z,36.59
2019-05-05T09:46:29.428Z,36.68
2019-05-05T09:48:56.051Z,36.08
2019-05-05T09:51:39.640Z,36.78
2019-05-05T10:00:13.993Z,35.53
2019-05-05T10:03:06.478Z,36.10
2019-05-05T10:05:50.806Z,36.63
2019-05-05T10:08:31.123Z,35.54
2019-05-05T10:11:07.193Z,35.60
2019-05-05T10:13:50.324Z,34.75
2019-05-05T10:19:44.003Z,34.29
2019-05-05T10:22:15.603Z,34.46
2019-05-05T10:24:57.389Z,35.17
2019-05-05T10:27:27.814Z,34.82
2019-05-05T10:29:59.360Z,34.55
2019-05-05T10:32:30.613Z,34.17
2019-05-05T10:38:23.582Z,34.12
2019-05-05T10:41:04.232Z,34.77
2019-05-05T10:43:49.703Z,34.12
2019-05-05T10:46:33.978Z,34.50
2019-05-05T10:49:08.259Z,34.13
2019-05-05T10:51:39.595Z,34.71
2019-05-05T10:57:18.438Z,34.07
2019-05-05T10:59:49.617Z,33.66
2019-05-05T11:02:20.257Z,33.92
2019-05-05T11:05:04.052Z,33.51
2019-05-05T11:07:34.082Z,34.32
2019-05-05T11:14:09.939Z,33.27
2019-05-05T11:16:43.921Z,33.47
2019-05-05T11:19:24.087Z,33.55
2019-05-05T11:22:12.171Z,33.85
2019-05-05T11:27:19.693Z,33.58
2019-05-05T11:28:41.459Z,32.31
2019-05-05T11:37:07.687Z,34.62
2019-05-05T11:42:43.288Z,33.44
2019-05-05T11:45:14.900Z,33.01
2019-05-05T11:47:54.449Z,33.33
2019-05-05T11:50:51.335Z,33.28
2019-05-05T11:56:24.570Z,33.59
2019-05-05T11:59:05.702Z,33.85
2019-05-05T12:01:36.997Z,33.90
2019-05-05T12:04:10.188Z,34.11
2019-05-05T12:06:45.406Z,34.22
2019-05-05T12:09:40.240Z,34.59
2019-05-05T12:12:35.983Z,34.59
2019-05-05T12:15:08.755Z,33.69
2019-05-05T12:17:40.182Z,33.63
2019-05-05T12:20:39.350Z,33.89
2019-05-05T12:23:13.896Z,34.29
2019-05-05T12:25:58.384Z,34.66
2019-05-05T12:28:31.331Z,34.79
2019-05-05T12:31:07.226Z,34.99
2019-05-05T12:33:41.262Z,35.13
2019-05-05T12:36:14.920Z,35.73
2019-05-05T12:38:57.954Z,35.24
2019-05-05T12:41:29.327Z,35.41
2019-05-05T12:44:00.905Z,35.77
2019-05-05T12:46:41.536Z,35.70
2019-05-05T12:49:29.553Z,35.89
2019-05-05T12:51:56.802Z,35.75
2019-05-05T12:54:58.447Z,35.78
2019-05-05T12:57:29.673Z,35.47
2019-05-05T13:00:00.432Z,35.38
2019-05-05T13:02:31.761Z,35.99
2019-05-05T13:08:23.437Z,35.83
2019-05-05T13:11:08.361Z,35.97
2019-05-05T13:13:43.813Z,36.50
2019-05-05T13:16:13.818Z,36.73
2019-05-05T13:21:54.166Z,36.19
2019-05-05T13:24:36.368Z,36.19
2019-05-05T13:27:19.193Z,35.49
2019-05-05T13:29:57.967Z,34.13
2019-05-05T13:32:30.495Z,34.87
2019-05-05T13:35:03.862Z,33.96
2019-05-05T13:37:36.115Z,34.43
2019-05-05T13:40:14.087Z,34.64
2019-05-05T13:42:47.051Z,35.26
2019-05-05T13:45:29.416Z,35.25
2019-05-05T13:48:03.532Z,35.14
2019-05-05T13:50:58.822Z,35.33
2019-05-05T13:53:34.250Z,35.45
2019-05-05T13:56:12.157Z,35.64
2019-05-05T13:58:43.763Z,35.73
2019-05-05T14:04:24.082Z,35.63
2019-05-05T14:06:58.810Z,35.52
2019-05-05T14:09:38.951Z,35.23
2019-05-05T14:12:14.650Z,35.54
2019-05-05T14:14:49.514Z,35.28
2019-05-05T14:17:21.825Z,35.68
2019-05-05T14:20:05.206Z,35.63
2019-05-05T14:22:30.580Z,35.25
2019-05-05T14:25:05.787Z,35.24
2019-05-05T14:27:37.110Z,35.64
2019-05-05T14:30:28.862Z,34.92
2019-05-05T14:32:59.870Z,34.55
2019-05-05T14:35:51.241Z,34.48
2019-05-05T14:38:41.169Z,34.19
2019-05-05T14:41:15.383Z,33.27
2019-05-05T14:43:49.103Z,32.74
2019-05-05T14:46:23.550Z,32.69
2019-05-05T14:49:06.623Z,32.26
2019-05-05T14:51:44.519Z,32.67
2019-05-05T14:54:26.878Z,32.84
2019-05-05T14:57:07.372Z,32.49
2019-05-05T14:59:48.711Z,32.26
2019-05-05T15:05:58.252Z,32.73
2019-05-05T15:09:06.311Z,32.70
2019-05-05T15:11:56.835Z,32.51
2019-05-05T15:14:51.119Z,32.43
2019-05-05T15:17:44.319Z,32.37
2019-05-05T15:23:43.680Z,32.19
2019-05-05T15:26:54.852Z,32.25
2019-05-05T15:29:43.592Z,32.19
2019-05-05T15:32:45.374Z,31.80
2019-05-05T15:35:21.886Z,32.29
2019-05-05T15:37:54.179Z,32.13
2019-05-05T15:40:25.848Z,32.17
2019-05-05T15:42:56.580Z,32.39
2019-05-05T15:45:27.728Z,32.76
2019-05-05T15:48:00.588Z,32.72
2019-05-05T15:50:32.054Z,32.67
2019-05-05T15:53:03.867Z,32.70
2019-05-05T15:55:37.000Z,32.78
2019-05-05T15:58:09.745Z,32.93
2019-05-05T16:00:53.673Z,32.93
2019-05-05T16:03:25.066Z,32.86
2019-05-05T16:05:59.448Z,32.73
2019-05-05T16:08:30.095Z,32.91
2019-05-05T16:11:03.315Z,33.09
2019-05-05T16:13:43.673Z,33.06
2019-05-05T16:23:03.573Z,32.69
2019-05-05T16:32:55.180Z,32.88
2019-05-05T16:35:31.638Z,33.16
2019-05-05T16:42:04.613Z,33.47
2019-05-05T16:44:40.074Z,34.29
2019-05-05T16:47:13.626Z,34.90
2019-05-05T16:49:44.915Z,34.88
2019-05-05T16:52:17.237Z,35.51
2019-05-05T16:54:59.086Z,36.32
2019-05-05T16:57:34.006Z,36.45
2019-05-05T17:00:03.826Z,36.87
2019-05-05T17:02:36.079Z,37.37
2019-05-05T17:05:07.382Z,37.11
2019-05-05T17:07:38.693Z,37.12
2019-05-05T17:10:10.114Z,38.17
2019-05-05T17:12:41.814Z,38.08
2019-05-05T17:15:14.029Z,38.30
2019-05-05T17:17:49.748Z,39.01
2019-05-05T17:20:41.363Z,39.38
2019-05-05T17:23:12.772Z,39.00
2019-05-05T17:25:43.887Z,39.31
2019-05-05T17:28:15.164Z,39.41
2019-05-05T17:30:46.453Z,39.77
2019-05-05T17:33:17.184Z,39.87
2019-05-05T17:35:48.315Z,40.70
2019-05-05T17:38:19.919Z,40.86
2019-05-05T17:40:54.082Z,41.27
2019-05-05T17:43:44.694Z,42.61
2019-05-05T17:46:24.213Z,42.71
2019-05-05T17:49:04.700Z,43.17
2019-05-05T17:51:47.007Z,43.28
2019-05-05T17:54:20.171Z,44.22
2019-05-05T17:56:54.422Z,44.82
2019-05-05T17:59:46.887Z,45.43
2019-05-05T18:02:19.557Z,46.07
2019-05-05T18:04:56.455Z,45.81
2019-05-05T18:07:40.745Z,45.95
2019-05-05T18:10:27.248Z,46.56
2019-05-05T18:13:29.669Z,46.58
2019-05-05T18:16:11.220Z,46.96
2019-05-05T18:25:30.405Z,47.70
2019-05-05T18:28:19.197Z,48.40
2019-05-05T18:30:58.505Z,48.71
2019-05-05T18:37:15.758Z,49.59
2019-05-05T18:39:49.422Z,49.51
2019-05-05T18:42:27.455Z,49.77
2019-05-05T18:45:15.094Z,50.22
2019-05-05T18:47:47.177Z,50.79
2019-05-05T18:50:20.362Z,50.61
2019-05-05T18:52:54.425Z,50.58
2019-05-05T18:55:28.418Z,50.54
2019-05-05T18:58:02.903Z,50.03
2019-05-05T19:00:36.112Z,50.27
2019-05-05T19:03:20.023Z,50.63
2019-05-05T19:05:45.064Z,50.85
2019-05-05T19:08:24.356Z,51.06
2019-05-05T19:11:00.948Z,50.77
2019-05-05T19:13:36.972Z,50.99
2019-05-05T19:16:08.605Z,51.05
2019-05-05T19:18:46.456Z,51.03
2019-05-05T19:21:34.018Z,50.84
2019-05-05T19:24:06.947Z,50.84
2019-05-05T19:26:40.316Z,50.77
2019-05-05T19:29:17.236Z,50.82
2019-05-05T19:32:04.877Z,51.05
2019-05-05T19:34:59.683Z,50.90
2019-05-05T19:37:51.239Z,50.38
2019-05-05T19:40:31.379Z,50.38
2019-05-05T19:43:13.962Z,50.23
2019-05-05T19:45:47.902Z,50.03
2019-05-05T20:22:00.885Z,53.15
